createdAt,value
2022-07-27T00:01:14.595Z,98.60
2022-07-27T00:03:43.765Z,98.60
2022-07-27T00:06:12.461Z,98.70
2022-07-27T00:08:40.877Z,98.70
2022-07-27T00:11:10.190Z,98.70
2022-07-27T00:13:38.885Z,98.80
2022-07-27T00:16:08.216Z,98.80
2022-07-27T00:18:38.191Z,98.90
2022-07-27T00:21:06.703Z,98.90
2022-07-27T00:23:35.355Z,99.00
2022-07-27T00:26:03.928Z,99.00
2022-07-27T00:28:32.803Z,99.10
2022-07-27T00:31:01.267Z,99.10
2022-07-27T00:33:29.737Z,99.10
2022-07-27T00:35:59.577Z,99.20
2022-07-27T00:38:27.976Z,99.30
2022-07-27T00:40:57.226Z,99.40
2022-07-27T00:43:25.795Z,99.40
2022-07-27T00:45:54.153Z,99.50
2022-07-27T00:48:22.559Z,99.50
2022-07-27T00:50:55.177Z,99.60
2022-07-27T00:53:25.437Z,99.60
2022-07-27T00:55:54.020Z,99.70
2022-07-27T00:58:22.941Z,99.70
2022-07-27T01:00:51.353Z,99.70
2022-07-27T01:03:20.095Z,99.70
2022-07-27T01:05:52.326Z,99.80
2022-07-27T01:08:21.138Z,99.70
2022-07-27T01:10:51.904Z,99.80
2022-07-27T01:13:20.425Z,99.90
2022-07-27T01:15:49.454Z,99.90
2022-07-27T01:18:29.190Z,99.90
2022-07-27T01:20:58.758Z,99.90
2022-07-27T01:23:29.701Z,99.80
2022-07-27T01:25:58.303Z,99.90
2022-07-27T01:28:27.352Z,99.80
2022-07-27T01:30:57.643Z,99.80
2022-07-27T01:33:27.254Z,99.90
2022-07-27T01:35:57.518Z,99.80
2022-07-27T01:38:27.659Z,99.80
2022-07-27T01:40:57.214Z,99.80
2022-07-27T01:43:26.176Z,99.80
2022-07-27T01:45:54.911Z,99.70
2022-07-27T01:48:23.729Z,99.60
2022-07-27T01:50:52.493Z,99.70
2022-07-27T01:53:22.013Z,99.80
2022-07-27T01:55:53.155Z,99.40
2022-07-27T01:58:21.859Z,99.50
2022-07-27T02:00:51.025Z,99.10
2022-07-27T02:03:19.751Z,99.00
2022-07-27T02:05:48.595Z,98.90
2022-07-27T02:08:17.399Z,98.80
2022-07-27T02:11:03.492Z,98.40
2022-07-27T02:13:34.343Z,98.00
2022-07-27T02:16:03.072Z,97.60
2022-07-27T02:18:35.859Z,97.30
2022-07-27T02:21:06.206Z,96.90
2022-07-27T02:23:35.577Z,96.50
2022-07-27T02:26:04.673Z,96.20
2022-07-27T02:28:35.101Z,95.90
2022-07-27T02:31:04.262Z,95.60
2022-07-27T02:33:33.681Z,95.30
2022-07-27T02:36:02.498Z,95.00
2022-07-27T02:38:31.194Z,94.80
2022-07-27T02:40:59.938Z,94.70
2022-07-27T02:43:28.663Z,94.70
2022-07-27T02:45:58.828Z,94.50
2022-07-27T02:48:27.499Z,94.30
2022-07-27T02:50:56.184Z,94.30
2022-07-27T02:53:24.909Z,94.30
2022-07-27T02:55:53.460Z,94.10
2022-07-27T02:58:22.182Z,93.90
2022-07-27T03:00:54.862Z,94.00
2022-07-27T03:03:33.862Z,93.90
2022-07-27T03:06:05.245Z,93.70
2022-07-27T03:08:33.680Z,93.40
2022-07-27T03:11:02.246Z,93.40
2022-07-27T03:13:30.982Z,93.40
2022-07-27T03:15:59.813Z,93.40
2022-07-27T03:18:29.718Z,93.40
2022-07-27T03:20:58.136Z,93.30
2022-07-27T03:23:26.550Z,93.50
2022-07-27T03:25:54.914Z,93.10
2022-07-27T03:28:23.324Z,93.10
2022-07-27T03:30:51.808Z,93.10
2022-07-27T03:33:20.355Z,93.00
2022-07-27T03:35:50.272Z,92.90
2022-07-27T03:38:18.738Z,92.70
2022-07-27T03:40:47.141Z,92.60
2022-07-27T03:43:15.572Z,92.60
2022-07-27T03:45:44.745Z,92.70
2022-07-27T03:48:13.344Z,93.00
2022-07-27T03:50:41.790Z,92.70
2022-07-27T03:53:12.119Z,92.80
2022-07-27T03:55:40.589Z,92.80
2022-07-27T03:58:09.023Z,92.80
2022-07-27T04:00:37.484Z,92.90
2022-07-27T04:03:06.034Z,93.00
2022-07-27T04:05:34.530Z,93.00
2022-07-27T04:08:03.046Z,93.00
2022-07-27T04:10:32.881Z,93.10
2022-07-27T04:13:01.371Z,93.20
2022-07-27T04:15:31.980Z,93.20
2022-07-27T04:18:00.447Z,93.30
2022-07-27T04:20:28.970Z,93.40
2022-07-27T04:22:57.429Z,93.50
2022-07-27T04:25:26.050Z,94.00
2022-07-27T04:27:55.844Z,94.00
2022-07-27T04:30:24.526Z,94.00
2022-07-27T04:32:53.238Z,94.20
2022-07-27T04:35:26.263Z,94.60
2022-07-27T04:37:58.805Z,95.00
2022-07-27T04:40:32.094Z,95.30
2022-07-27T04:43:02.696Z,95.10
2022-07-27T04:45:31.508Z,94.90
2022-07-27T04:48:00.129Z,94.80
2022-07-27T04:50:28.680Z,94.60
2022-07-27T04:52:57.014Z,94.50
2022-07-27T04:55:25.624Z,94.50
2022-07-27T04:57:54.048Z,94.50
2022-07-27T05:00:24.033Z,94.60
2022-07-27T05:02:52.456Z,94.60
2022-07-27T05:05:20.944Z,94.60
2022-07-27T05:07:49.333Z,94.60
2022-07-27T05:10:20.477Z,94.50
2022-07-27T05:12:50.216Z,94.50
2022-07-27T05:15:19.008Z,94.50
2022-07-27T05:17:49.059Z,94.60
2022-07-27T05:20:17.692Z,94.50
2022-07-27T05:22:46.057Z,94.50
2022-07-27T05:25:14.511Z,94.50
2022-07-27T05:27:53.871Z,94.50
2022-07-27T05:30:24.414Z,94.50
2022-07-27T05:32:54.823Z,94.50
2022-07-27T05:35:23.435Z,94.40
2022-07-27T05:37:51.882Z,94.50
2022-07-27T05:40:20.684Z,94.70
2022-07-27T05:42:50.504Z,94.70
2022-07-27T05:45:19.211Z,94.90
2022-07-27T05:47:47.750Z,95.10
2022-07-27T05:50:18.071Z,95.40
2022-07-27T05:52:46.658Z,95.60
2022-07-27T05:55:15.296Z,95.90
2022-07-27T05:57:43.726Z,96.00
2022-07-27T06:00:13.345Z,96.30
2022-07-27T06:02:42.541Z,96.50
2022-07-27T06:05:15.694Z,96.70
2022-07-27T06:08:03.667Z,96.90
2022-07-27T06:10:33.979Z,97.20
2022-07-27T06:13:03.318Z,97.30
2022-07-27T06:15:31.800Z,97.40
2022-07-27T06:18:00.285Z,97.30
2022-07-27T06:20:28.829Z,97.20
2022-07-27T06:23:03.336Z,97.00
2022-07-27T06:25:37.285Z,96.80
2022-07-27T06:28:06.615Z,96.60
2022-07-27T06:30:35.542Z,96.50
2022-07-27T06:33:06.209Z,96.50
2022-07-27T06:35:37.953Z,96.60
2022-07-27T06:38:09.272Z,96.60
2022-07-27T06:40:37.871Z,96.70
2022-07-27T06:43:06.270Z,96.60
2022-07-27T06:45:34.690Z,96.60
2022-07-27T06:48:03.028Z,96.50
2022-07-27T06:50:31.782Z,96.50
2022-07-27T06:53:00.188Z,96.50
2022-07-27T06:55:30.188Z,96.50
2022-07-27T06:57:58.594Z,96.50
2022-07-27T07:00:27.486Z,96.30
2022-07-27T07:02:58.150Z,96.20
2022-07-27T07:05:27.067Z,96.30
2022-07-27T07:07:55.930Z,96.40
2022-07-27T07:10:25.628Z,96.10
2022-07-27T07:12:56.716Z,96.10
2022-07-27T07:15:26.727Z,96.00
2022-07-27T07:17:55.498Z,95.80
2022-07-27T07:20:24.544Z,95.60
2022-07-27T07:22:53.087Z,95.50
2022-07-27T07:25:22.119Z,95.40
2022-07-27T07:27:51.179Z,95.00
2022-07-27T07:30:21.612Z,94.90
2022-07-27T07:32:50.379Z,94.90
2022-07-27T07:35:18.880Z,95.00
2022-07-27T07:37:50.317Z,94.90
2022-07-27T07:43:08.417Z,93.90
2022-07-27T07:45:49.987Z,93.60
2022-07-27T07:48:21.354Z,93.40
2022-07-27T07:50:51.363Z,93.30
2022-07-27T07:53:21.647Z,93.10
2022-07-27T07:55:50.230Z,93.00
2022-07-27T07:58:18.676Z,92.70
2022-07-27T08:00:48.661Z,92.40
2022-07-27T08:03:18.271Z,92.30
2022-07-27T08:05:46.822Z,92.40
2022-07-27T08:08:15.230Z,92.30
2022-07-27T08:10:43.707Z,91.90
2022-07-27T08:13:12.117Z,91.60
2022-07-27T08:15:40.588Z,91.50
2022-07-27T08:18:10.826Z,91.60
2022-07-27T08:20:39.212Z,91.60
2022-07-27T08:23:07.790Z,91.60
2022-07-27T08:25:39.158Z,91.50
2022-07-27T08:28:07.941Z,91.50
2022-07-27T08:30:36.680Z,91.50
2022-07-27T08:33:06.340Z,91.30
2022-07-27T08:35:36.940Z,91.40
2022-07-27T08:38:07.433Z,91.40
2022-07-27T08:40:46.058Z,91.50
2022-07-27T08:43:23.732Z,91.50
2022-07-27T08:45:57.901Z,91.30
2022-07-27T08:48:27.410Z,91.30
2022-07-27T08:50:57.586Z,91.30
2022-07-27T08:53:26.392Z,91.40
2022-07-27T08:56:14.779Z,91.40
2022-07-27T08:58:45.150Z,91.30
2022-07-27T09:01:13.619Z,91.00
2022-07-27T09:03:42.091Z,91.20
2022-07-27T09:06:12.012Z,91.30
2022-07-27T09:08:41.998Z,91.20
2022-07-27T09:11:20.156Z,90.90
2022-07-27T09:13:48.622Z,90.70
2022-07-27T09:16:19.106Z,90.70
2022-07-27T09:18:48.639Z,90.70
2022-07-27T09:21:21.032Z,90.60
2022-07-27T09:23:52.667Z,90.20
2022-07-27T09:26:33.243Z,90.10
2022-07-27T09:29:04.473Z,89.50
2022-07-27T09:31:34.147Z,89.10
2022-07-27T09:34:04.472Z,89.50
2022-07-27T09:36:34.234Z,90.00
2022-07-27T09:39:05.696Z,90.00
2022-07-27T09:41:42.306Z,90.10
2022-07-27T09:47:00.450Z,90.30
2022-07-27T09:49:31.369Z,90.40
2022-07-27T09:52:03.134Z,90.50
2022-07-27T09:54:44.529Z,90.60
2022-07-27T09:57:13.102Z,90.40
2022-07-27T09:59:41.474Z,90.40
2022-07-27T10:02:09.992Z,90.40
2022-07-27T10:04:38.629Z,90.40
2022-07-27T10:07:13.178Z,90.40
2022-07-27T10:09:43.394Z,90.30
2022-07-27T10:12:12.075Z,90.50
2022-07-27T10:14:40.445Z,89.50
2022-07-27T10:17:13.003Z,87.80
2022-07-27T10:19:47.379Z,88.00
2022-07-27T10:22:17.577Z,88.00
2022-07-27T10:24:48.793Z,88.70
2022-07-27T10:27:22.945Z,88.10
2022-07-27T10:29:52.784Z,88.20
2022-07-27T10:32:31.208Z,87.60
2022-07-27T10:35:01.322Z,87.80
2022-07-27T10:37:33.371Z,87.00
2022-07-27T10:40:21.426Z,86.40
2022-07-27T10:42:54.242Z,86.80
2022-07-27T10:45:23.561Z,87.30
2022-07-27T10:47:53.514Z,87.10
2022-07-27T10:50:27.533Z,87.30
2022-07-27T10:52:59.239Z,85.30
2022-07-27T10:55:47.746Z,83.50
2022-07-27T10:58:48.859Z,81.60
2022-07-27T11:01:18.616Z,81.30
2022-07-27T11:03:52.573Z,77.60
2022-07-27T11:06:41.907Z,76.30
2022-07-27T11:10:02.599Z,75.50
2022-07-27T11:12:12.309Z,76.50
2022-07-27T11:14:48.679Z,75.50
2022-07-27T11:20:08.926Z,75.10
2022-07-27T11:23:40.694Z,75.50
2022-07-27T11:25:28.420Z,75.40
2022-07-27T11:27:56.901Z,74.10
2022-07-27T11:30:27.348Z,73.70
2022-07-27T11:32:56.545Z,76.50
2022-07-27T11:35:25.252Z,76.60
2022-07-27T11:38:01.697Z,76.70
2022-07-27T11:41:15.212Z,77.10
2022-07-27T11:43:42.622Z,77.10
2022-07-27T11:46:20.596Z,77.20
2022-07-27T11:49:07.908Z,75.80
2022-07-27T11:51:39.040Z,74.60
2022-07-27T11:54:08.904Z,75.20
2022-07-27T11:56:39.985Z,75.00
2022-07-27T11:59:14.874Z,75.00
2022-07-27T12:01:47.869Z,75.00
2022-07-27T12:04:25.322Z,74.30
2022-07-27T12:07:07.493Z,72.00
2022-07-27T12:09:39.221Z,72.70
2022-07-27T12:12:15.153Z,73.40
2022-07-27T12:14:46.918Z,74.50
2022-07-27T12:17:21.476Z,73.40
2022-07-27T12:19:57.976Z,73.20
2022-07-27T12:22:33.046Z,72.50
2022-07-27T12:25:09.958Z,73.00
2022-07-27T12:27:57.587Z,72.60
2022-07-27T12:30:32.000Z,72.10
2022-07-27T12:33:01.108Z,70.90
2022-07-27T12:35:36.761Z,70.80
2022-07-27T12:38:07.895Z,69.50
2022-07-27T12:40:44.414Z,70.00
2022-07-27T12:43:18.431Z,70.20
2022-07-27T12:45:48.767Z,70.40
2022-07-27T12:48:19.855Z,70.30
2022-07-27T12:50:50.815Z,70.90
2022-07-27T12:53:19.263Z,71.30
2022-07-27T12:55:47.696Z,70.50
2022-07-27T12:58:17.562Z,70.20
2022-07-27T13:00:46.083Z,69.70
2022-07-27T13:03:14.845Z,69.80
2022-07-27T13:05:43.702Z,68.20
2022-07-27T13:08:12.334Z,67.70
2022-07-27T13:10:45.704Z,68.50
2022-07-27T13:13:15.243Z,68.60
2022-07-27T13:15:45.064Z,65.60
2022-07-27T13:18:13.438Z,65.80
2022-07-27T13:20:42.509Z,65.70
2022-07-27T13:23:10.885Z,66.60
2022-07-27T13:25:43.262Z,67.00
2022-07-27T13:28:12.125Z,63.90
2022-07-27T13:30:40.833Z,63.30
2022-07-27T13:33:10.622Z,64.60
2022-07-27T13:35:39.462Z,65.40
2022-07-27T13:38:08.623Z,65.60
2022-07-27T13:40:45.212Z,65.10
2022-07-27T13:43:13.676Z,65.20
2022-07-27T13:45:42.926Z,65.40
2022-07-27T13:48:13.520Z,65.90
2022-07-27T13:50:45.243Z,67.10
2022-07-27T13:53:15.750Z,67.60
2022-07-27T13:55:44.926Z,67.00
2022-07-27T13:58:13.354Z,67.00
2022-07-27T14:00:42.189Z,67.70
2022-07-27T14:03:11.472Z,65.80
2022-07-27T14:05:41.934Z,65.80
2022-07-27T14:08:18.191Z,65.90
2022-07-27T14:10:46.742Z,66.00
2022-07-27T14:13:19.773Z,66.70
2022-07-27T14:15:53.633Z,66.20
2022-07-27T14:18:25.634Z,65.60
2022-07-27T14:20:55.869Z,65.40
2022-07-27T14:23:25.218Z,65.30
2022-07-27T14:25:55.412Z,65.40
2022-07-27T14:28:24.830Z,65.80
2022-07-27T14:30:54.206Z,66.00
2022-07-27T14:33:22.800Z,65.40
2022-07-27T14:35:51.357Z,65.10
2022-07-27T14:38:24.905Z,64.60
2022-07-27T14:41:01.217Z,64.30
2022-07-27T14:43:31.723Z,64.70
2022-07-27T14:46:00.652Z,65.20
2022-07-27T14:49:02.865Z,65.00
2022-07-27T14:51:17.863Z,65.10
2022-07-27T14:53:47.928Z,65.30
2022-07-27T14:56:16.447Z,65.80
2022-07-27T14:58:45.175Z,66.00
2022-07-27T15:01:16.583Z,66.00
2022-07-27T15:03:46.022Z,66.10
2022-07-27T15:06:14.463Z,66.50
2022-07-27T15:08:42.988Z,66.60
2022-07-27T15:11:12.839Z,66.60
2022-07-27T15:13:41.442Z,66.90
2022-07-27T15:16:09.893Z,67.80
2022-07-27T15:18:39.164Z,67.50
2022-07-27T15:21:13.311Z,68.30
2022-07-27T15:23:43.027Z,70.60
2022-07-27T15:26:13.728Z,71.20
2022-07-27T15:28:42.147Z,71.40
2022-07-27T15:31:10.840Z,71.70
2022-07-27T15:33:39.301Z,71.50
2022-07-27T15:36:07.830Z,71.50
2022-07-27T15:38:36.267Z,71.30
2022-07-27T15:41:04.746Z,71.40
2022-07-27T15:43:34.594Z,71.70
2022-07-27T15:46:03.239Z,71.30
2022-07-27T15:48:31.692Z,71.20
2022-07-27T15:51:00.093Z,71.00
2022-07-27T15:53:30.043Z,71.30
2022-07-27T15:55:58.462Z,71.30
2022-07-27T15:58:26.996Z,71.70
2022-07-27T16:00:58.402Z,71.10
2022-07-27T16:03:28.219Z,71.30
2022-07-27T16:05:58.327Z,71.40
2022-07-27T16:08:29.811Z,71.40
2022-07-27T16:10:59.042Z,72.40
2022-07-27T16:13:27.825Z,72.10
2022-07-27T16:16:15.338Z,72.50
2022-07-27T16:18:43.824Z,73.00
2022-07-27T16:21:12.187Z,73.20
2022-07-27T16:23:40.545Z,73.90
2022-07-27T16:26:09.406Z,74.30
2022-07-27T16:28:39.818Z,74.30
2022-07-27T16:31:13.854Z,74.50
2022-07-27T16:33:45.325Z,74.70
2022-07-27T16:36:14.414Z,74.90
2022-07-27T16:38:49.667Z,74.80
2022-07-27T16:41:19.607Z,75.10
2022-07-27T16:43:48.253Z,75.20
2022-07-27T16:46:18.394Z,75.00
2022-07-27T16:48:47.219Z,74.70
2022-07-27T16:51:16.675Z,74.60
2022-07-27T16:53:48.105Z,74.40
2022-07-27T16:56:17.568Z,74.30
2022-07-27T16:58:46.133Z,74.30
2022-07-27T17:01:22.094Z,74.30
2022-07-27T17:03:56.969Z,74.30
2022-07-27T17:06:26.107Z,74.20
2022-07-27T17:08:54.674Z,74.00
2022-07-27T17:11:23.582Z,74.20
2022-07-27T17:13:59.108Z,73.90
2022-07-27T17:16:29.213Z,73.90
2022-07-27T17:18:59.050Z,74.00
2022-07-27T17:21:27.610Z,74.30
2022-07-27T17:23:56.037Z,74.30
2022-07-27T17:26:25.245Z,74.30
2022-07-27T17:28:54.127Z,74.30
2022-07-27T17:31:23.369Z,74.50
2022-07-27T17:33:52.589Z,74.40
2022-07-27T17:36:23.019Z,74.30
2022-07-27T17:38:51.984Z,74.30
2022-07-27T17:41:25.064Z,74.30
2022-07-27T17:43:54.765Z,74.40
2022-07-27T17:46:24.739Z,74.30
2022-07-27T17:48:54.502Z,74.50
2022-07-27T17:51:25.506Z,74.70
2022-07-27T17:53:54.198Z,75.00
2022-07-27T17:56:22.754Z,75.20
2022-07-27T17:58:51.902Z,75.20
2022-07-27T18:01:47.677Z,75.40
2022-07-27T18:04:08.992Z,75.80
2022-07-27T18:06:38.865Z,76.00
2022-07-27T18:09:08.732Z,76.00
2022-07-27T18:11:37.518Z,76.60
2022-07-27T18:14:05.911Z,77.00
2022-07-27T18:16:40.162Z,77.60
2022-07-27T18:19:09.330Z,78.40
2022-07-27T18:21:39.191Z,78.70
2022-07-27T18:24:10.174Z,78.90
2022-07-27T18:26:39.317Z,79.10
2022-07-27T18:29:07.810Z,79.50
2022-07-27T18:31:36.343Z,79.40
2022-07-27T18:34:09.109Z,79.40
2022-07-27T18:36:42.709Z,80.60
2022-07-27T18:39:11.412Z,80.10
2022-07-27T18:41:40.773Z,80.50
2022-07-27T18:44:09.268Z,80.90
2022-07-27T18:46:37.665Z,81.10
2022-07-27T18:49:06.130Z,81.20
2022-07-27T18:51:37.175Z,81.70
2022-07-27T18:54:07.179Z,82.20
2022-07-27T18:56:38.047Z,82.50
2022-07-27T18:59:06.494Z,82.80
2022-07-27T19:01:35.146Z,83.00
2022-07-27T19:04:04.428Z,83.20
2022-07-27T19:06:33.873Z,83.50
2022-07-27T19:09:04.579Z,83.70
2022-07-27T19:11:34.433Z,83.90
2022-07-27T19:14:02.855Z,83.90
2022-07-27T19:16:31.444Z,83.90
2022-07-27T19:18:59.957Z,84.10
2022-07-27T19:21:31.850Z,84.20
2022-07-27T19:24:00.267Z,84.30
2022-07-27T19:26:28.679Z,84.30
2022-07-27T19:28:58.429Z,84.20
2022-07-27T19:31:28.273Z,84.30
2022-07-27T19:33:56.726Z,84.10
2022-07-27T19:36:25.176Z,84.00
2022-07-27T19:38:53.825Z,83.90
2022-07-27T19:41:22.260Z,83.90
2022-07-27T19:43:51.083Z,83.90
2022-07-27T19:46:21.607Z,84.10
2022-07-27T19:48:50.110Z,84.40
2022-07-27T19:51:18.555Z,84.50
2022-07-27T19:53:47.238Z,84.50
2022-07-27T19:56:15.734Z,84.60
2022-07-27T19:58:44.149Z,84.50
2022-07-27T20:01:13.712Z,84.60
2022-07-27T20:03:52.244Z,84.70
2022-07-27T20:06:23.613Z,84.70
2022-07-27T20:08:56.305Z,84.70
2022-07-27T20:11:25.842Z,84.70
2022-07-27T20:13:54.737Z,84.70
2022-07-27T20:16:23.494Z,84.70
2022-07-27T20:18:58.082Z,84.70
2022-07-27T20:21:27.367Z,84.80
2022-07-27T20:23:58.683Z,84.90
2022-07-27T20:26:27.598Z,84.80
2022-07-27T20:28:56.709Z,84.80
2022-07-27T20:31:25.732Z,85.00
2022-07-27T20:33:55.688Z,85.10
2022-07-27T20:36:24.159Z,85.20
2022-07-27T20:38:53.293Z,85.30
2022-07-27T20:41:21.634Z,85.50
2022-07-27T20:43:50.073Z,85.40
2022-07-27T20:46:21.135Z,85.50
2022-07-27T20:48:49.856Z,85.70
2022-07-27T20:51:19.691Z,85.70
2022-07-27T20:53:48.137Z,85.70
2022-07-27T20:56:16.612Z,85.80
2022-07-27T20:58:45.397Z,85.90
2022-07-27T21:01:13.863Z,86.10
2022-07-27T21:03:42.578Z,86.20
2022-07-27T21:06:11.312Z,86.30
2022-07-27T21:08:46.213Z,86.40
2022-07-27T21:11:15.341Z,86.50
2022-07-27T21:13:43.931Z,86.60
2022-07-27T21:16:12.685Z,86.70
2022-07-27T21:18:41.196Z,86.80
2022-07-27T21:21:09.591Z,86.80
2022-07-27T21:23:55.750Z,86.90
2022-07-27T21:26:25.602Z,86.90
2022-07-27T21:28:54.021Z,87.80
2022-07-27T21:31:22.365Z,87.00
2022-07-27T21:33:50.994Z,87.00
2022-07-27T21:36:19.433Z,87.00
2022-07-27T21:38:47.921Z,87.10
2022-07-27T21:41:16.601Z,87.30
2022-07-27T21:43:46.711Z,87.30
2022-07-27T21:46:15.350Z,87.50
2022-07-27T21:48:43.997Z,87.60
2022-07-27T21:51:14.763Z,87.60
2022-07-27T21:53:43.533Z,87.60
2022-07-27T21:56:13.659Z,87.60
2022-07-27T21:58:45.062Z,87.70
2022-07-27T22:01:15.638Z,87.70
2022-07-27T22:03:45.023Z,87.80
2022-07-27T22:06:13.917Z,87.80
2022-07-27T22:08:42.432Z,87.80
2022-07-27T22:11:11.150Z,87.80
2022-07-27T22:13:39.821Z,87.90
2022-07-27T22:16:09.048Z,87.90
2022-07-27T22:18:39.089Z,87.80
2022-07-27T22:21:07.884Z,87.90
2022-07-27T22:23:36.842Z,87.90
2022-07-27T22:26:07.310Z,87.90
2022-07-27T22:28:35.949Z,88.00
2022-07-27T22:31:22.256Z,88.10
2022-07-27T22:33:53.095Z,88.00
2022-07-27T22:36:21.655Z,88.10
2022-07-27T22:38:50.221Z,88.20
2022-07-27T22:41:18.664Z,88.10
2022-07-27T22:43:47.032Z,88.10
2022-07-27T22:46:15.498Z,88.20
2022-07-27T22:48:44.078Z,88.20
2022-07-27T22:51:13.850Z,88.30
2022-07-27T22:53:42.187Z,88.30
2022-07-27T22:56:10.663Z,88.30
2022-07-27T22:58:39.087Z,88.30
2022-07-27T23:01:07.509Z,88.20
2022-07-27T23:03:55.800Z,88.20
2022-07-27T23:06:25.599Z,88.20
2022-07-27T23:08:53.932Z,88.10
2022-07-27T23:11:22.849Z,88.10
2022-07-27T23:13:51.222Z,88.10
2022-07-27T23:16:19.693Z,88.10
2022-07-27T23:18:48.306Z,88.00
2022-07-27T23:21:16.715Z,88.10
2022-07-27T23:23:51.018Z,88.00
2022-07-27T23:26:23.018Z,88.00
2022-07-27T23:28:54.642Z,88.00
2022-07-27T23:31:23.314Z,88.00
2022-07-27T23:33:51.999Z,88.00
2022-07-27T23:36:22.003Z,88.00
2022-07-27T23:38:51.828Z,88.10
2022-07-27T23:41:20.264Z,88.10
2022-07-27T23:43:48.771Z,88.00
2022-07-27T23:46:17.234Z,87.80
2022-07-27T23:48:45.726Z,87.90
2022-07-27T23:51:19.007Z,87.90
2022-07-27T23:53:47.802Z,88.00
2022-07-27T23:56:17.683Z,88.00
2022-07-27T23:58:46.138Z,88.00
